sensor_id;sensor_type;location;lat;lon;timestamp;P1;durP1;ratioP1;P2;durP2;ratioP2
58758;SDS011;46777;47.482;19.054;2022-12-17T00:01:31;58.10;;;46.50;;
58758;SDS011;46777;47.482;19.054;2022-12-17T00:04:35;57.30;;;46.85;;
58758;SDS011;46777;47.482;19.054;2022-12-17T00:07:38;59.85;;;47.15;;
58758;SDS011;46777;47.482;19.054;2022-12-17T00:10:41;60.17;;;46.40;;
58758;SDS011;46777;47.482;19.054;2022-12-17T00:13:44;56.50;;;46.28;;
58758;SDS011;46777;47.482;19.054;2022-12-17T00:16:55;61.67;;;48.47;;
58758;SDS011;46777;47.482;19.054;2022-12-17T00:19:58;59.15;;;46.53;;
58758;SDS011;46777;47.482;19.054;2022-12-17T00:23:02;61.60;;;47.85;;
58758;SDS011;46777;47.482;19.054;2022-12-17T00:26:05;58.88;;;46.67;;
58758;SDS011;46777;47.482;19.054;2022-12-17T00:29:08;56.63;;;45.78;;
58758;SDS011;46777;47.482;19.054;2022-12-17T00:32:11;58.22;;;47.58;;
58758;SDS011;46777;47.482;19.054;2022-12-17T00:35:14;60.03;;;47.53;;
58758;SDS011;46777;47.482;19.054;2022-12-17T00:38:18;66.30;;;59.17;;
58758;SDS011;46777;47.482;19.054;2022-12-17T00:41:21;62.50;;;48.88;;
58758;SDS011;46777;47.482;19.054;2022-12-17T00:44:24;64.72;;;51.47;;
58758;SDS011;46777;47.482;19.054;2022-12-17T00:47:27;65.55;;;50.42;;
58758;SDS011;46777;47.482;19.054;2022-12-17T00:50:30;65.22;;;49.72;;
58758;SDS011;46777;47.482;19.054;2022-12-17T00:53:33;62.92;;;49.72;;
58758;SDS011;46777;47.482;19.054;2022-12-17T00:56:37;62.10;;;48.60;;
58758;SDS011;46777;47.482;19.054;2022-12-17T00:59:40;61.42;;;48.03;;
58758;SDS011;46777;47.482;19.054;2022-12-17T01:02:43;59.55;;;47.03;;
58758;SDS011;46777;47.482;19.054;2022-12-17T01:05:46;62.55;;;50.20;;
58758;SDS011;46777;47.482;19.054;2022-12-17T01:08:49;63.42;;;48.53;;
58758;SDS011;46777;47.482;19.054;2022-12-17T01:11:52;62.67;;;50.55;;
58758;SDS011;46777;47.482;19.054;2022-12-17T01:14:55;65.53;;;51.13;;
58758;SDS011;46777;47.482;19.054;2022-12-17T01:17:58;67.63;;;52.15;;
58758;SDS011;46777;47.482;19.054;2022-12-17T01:21:02;63.55;;;48.85;;
58758;SDS011;46777;47.482;19.054;2022-12-17T01:24:05;64.72;;;49.78;;
58758;SDS011;46777;47.482;19.054;2022-12-17T01:27:08;64.80;;;51.28;;
58758;SDS011;46777;47.482;19.054;2022-12-17T01:30:12;63.30;;;51.38;;
58758;SDS011;46777;47.482;19.054;2022-12-17T01:33:15;67.53;;;52.08;;
58758;SDS011;46777;47.482;19.054;2022-12-17T01:36:18;66.28;;;51.35;;
58758;SDS011;46777;47.482;19.054;2022-12-17T01:39:21;63.53;;;50.78;;
58758;SDS011;46777;47.482;19.054;2022-12-17T01:42:24;64.45;;;51.50;;
58758;SDS011;46777;47.482;19.054;2022-12-17T01:45:29;61.20;;;49.08;;
58758;SDS011;46777;47.482;19.054;2022-12-17T01:48:39;59.53;;;48.22;;
58758;SDS011;46777;47.482;19.054;2022-12-17T01:51:43;58.70;;;45.90;;
58758;SDS011;46777;47.482;19.054;2022-12-17T01:54:46;61.25;;;48.97;;
58758;SDS011;46777;47.482;19.054;2022-12-17T01:57:50;59.13;;;47.42;;
58758;SDS011;46777;47.482;19.054;2022-12-17T02:01:09;63.40;;;56.40;;
58758;SDS011;46777;47.482;19.054;2022-12-17T02:04:13;58.15;;;45.80;;
58758;SDS011;46777;47.482;19.054;2022-12-17T02:07:19;57.65;;;45.33;;
58758;SDS011;46777;47.482;19.054;2022-12-17T02:13:34;56.55;;;44.28;;
58758;SDS011;46777;47.482;19.054;2022-12-17T02:16:42;58.13;;;47.47;;
58758;SDS011;46777;47.482;19.054;2022-12-17T02:19:56;59.53;;;46.80;;
58758;SDS011;46777;47.482;19.054;2022-12-17T02:23:12;59.35;;;48.15;;
58758;SDS011;46777;47.482;19.054;2022-12-17T02:26:28;63.28;;;50.00;;
58758;SDS011;46777;47.482;19.054;2022-12-17T02:29:35;64.30;;;51.60;;
58758;SDS011;46777;47.482;19.054;2022-12-17T02:32:40;58.35;;;47.67;;
58758;SDS011;46777;47.482;19.054;2022-12-17T02:35:57;60.67;;;48.80;;
58758;SDS011;46777;47.482;19.054;2022-12-17T02:39:02;57.20;;;46.85;;
58758;SDS011;46777;47.482;19.054;2022-12-17T02:42:05;56.03;;;44.20;;
58758;SDS011;46777;47.482;19.054;2022-12-17T02:45:08;58.50;;;47.47;;
58758;SDS011;46777;47.482;19.054;2022-12-17T02:48:12;57.30;;;46.60;;
58758;SDS011;46777;47.482;19.054;2022-12-17T02:51:15;58.78;;;46.22;;
58758;SDS011;46777;47.482;19.054;2022-12-17T02:54:18;60.05;;;47.20;;
58758;SDS011;46777;47.482;19.054;2022-12-17T02:57:21;58.88;;;47.90;;
58758;SDS011;46777;47.482;19.054;2022-12-17T03:00:24;58.60;;;48.10;;
58758;SDS011;46777;47.482;19.054;2022-12-17T03:03:28;59.28;;;49.78;;
58758;SDS011;46777;47.482;19.054;2022-12-17T03:06:30;62.08;;;49.53;;
58758;SDS011;46777;47.482;19.054;2022-12-17T03:09:33;63.20;;;49.70;;
58758;SDS011;46777;47.482;19.054;2022-12-17T03:12:37;62.38;;;49.88;;
58758;SDS011;46777;47.482;19.054;2022-12-17T03:15:40;63.40;;;50.30;;
58758;SDS011;46777;47.482;19.054;2022-12-17T03:18:43;59.33;;;47.50;;
58758;SDS011;46777;47.482;19.054;2022-12-17T03:21:46;65.60;;;51.05;;
58758;SDS011;46777;47.482;19.054;2022-12-17T03:24:50;57.65;;;47.50;;
58758;SDS011;46777;47.482;19.054;2022-12-17T03:27:53;65.07;;;58.08;;
58758;SDS011;46777;47.482;19.054;2022-12-17T03:30:56;56.75;;;47.05;;
58758;SDS011;46777;47.482;19.054;2022-12-17T03:33:59;56.03;;;44.38;;
58758;SDS011;46777;47.482;19.054;2022-12-17T03:37:03;57.42;;;46.60;;
58758;SDS011;46777;47.482;19.054;2022-12-17T03:40:06;55.00;;;45.45;;
58758;SDS011;46777;47.482;19.054;2022-12-17T03:43:09;54.67;;;44.10;;
58758;SDS011;46777;47.482;19.054;2022-12-17T03:46:13;58.65;;;46.47;;
58758;SDS011;46777;47.482;19.054;2022-12-17T03:49:16;54.47;;;44.60;;
58758;SDS011;46777;47.482;19.054;2022-12-17T03:52:19;48.38;;;41.08;;
58758;SDS011;46777;47.482;19.054;2022-12-17T03:55:22;52.47;;;43.58;;
58758;SDS011;46777;47.482;19.054;2022-12-17T03:58:26;55.10;;;44.30;;
58758;SDS011;46777;47.482;19.054;2022-12-17T04:01:29;52.08;;;42.75;;
58758;SDS011;46777;47.482;19.054;2022-12-17T04:04:32;53.58;;;43.45;;
58758;SDS011;46777;47.482;19.054;2022-12-17T04:07:35;56.00;;;44.50;;
58758;SDS011;46777;47.482;19.054;2022-12-17T04:10:38;53.65;;;43.15;;
58758;SDS011;46777;47.482;19.054;2022-12-17T04:13:41;55.50;;;44.00;;
58758;SDS011;46777;47.482;19.054;2022-12-17T04:16:44;55.58;;;44.40;;
58758;SDS011;46777;47.482;19.054;2022-12-17T04:19:48;57.30;;;45.60;;
58758;SDS011;46777;47.482;19.054;2022-12-17T04:22:51;56.85;;;45.35;;
58758;SDS011;46777;47.482;19.054;2022-12-17T04:25:54;57.85;;;45.33;;
58758;SDS011;46777;47.482;19.054;2022-12-17T04:28:57;57.85;;;45.38;;
58758;SDS011;46777;47.482;19.054;2022-12-17T04:32:00;56.00;;;45.60;;
58758;SDS011;46777;47.482;19.054;2022-12-17T04:35:03;52.60;;;43.83;;
58758;SDS011;46777;47.482;19.054;2022-12-17T04:38:06;55.85;;;44.53;;
58758;SDS011;46777;47.482;19.054;2022-12-17T04:41:09;56.25;;;45.40;;
58758;SDS011;46777;47.482;19.054;2022-12-17T04:44:13;55.53;;;44.58;;
58758;SDS011;46777;47.482;19.054;2022-12-17T04:47:16;55.95;;;43.88;;
58758;SDS011;46777;47.482;19.054;2022-12-17T04:50:19;55.47;;;44.45;;
58758;SDS011;46777;47.482;19.054;2022-12-17T04:53:22;56.88;;;49.97;;
58758;SDS011;46777;47.482;19.054;2022-12-17T04:56:25;50.83;;;41.35;;
58758;SDS011;46777;47.482;19.054;2022-12-17T04:59:41;56.90;;;43.47;;
58758;SDS011;46777;47.482;19.054;2022-12-17T05:02:44;50.92;;;41.67;;
58758;SDS011;46777;47.482;19.054;2022-12-17T05:05:47;49.92;;;40.65;;
58758;SDS011;46777;47.482;19.054;2022-12-17T05:08:51;50.28;;;42.08;;
58758;SDS011;46777;47.482;19.054;2022-12-17T05:11:54;52.63;;;41.63;;
58758;SDS011;46777;47.482;19.054;2022-12-17T05:14:57;52.55;;;42.42;;
58758;SDS011;46777;47.482;19.054;2022-12-17T05:18:07;52.83;;;42.33;;
58758;SDS011;46777;47.482;19.054;2022-12-17T05:21:09;53.72;;;41.97;;
58758;SDS011;46777;47.482;19.054;2022-12-17T05:24:12;51.42;;;41.10;;
58758;SDS011;46777;47.482;19.054;2022-12-17T05:27:16;51.20;;;39.47;;
58758;SDS011;46777;47.482;19.054;2022-12-17T05:30:19;48.92;;;39.35;;
58758;SDS011;46777;47.482;19.054;2022-12-17T05:33:22;50.72;;;39.95;;
58758;SDS011;46777;47.482;19.054;2022-12-17T05:36:25;51.60;;;39.63;;
58758;SDS011;46777;47.482;19.054;2022-12-17T05:39:28;49.00;;;39.22;;
58758;SDS011;46777;47.482;19.054;2022-12-17T05:42:31;49.80;;;40.55;;
58758;SDS011;46777;47.482;19.054;2022-12-17T05:45:34;50.55;;;39.22;;
58758;SDS011;46777;47.482;19.054;2022-12-17T05:48:40;47.22;;;39.00;;
58758;SDS011;46777;47.482;19.054;2022-12-17T05:51:43;47.00;;;39.13;;
58758;SDS011;46777;47.482;19.054;2022-12-17T05:54:46;47.90;;;39.75;;
58758;SDS011;46777;47.482;19.054;2022-12-17T05:57:49;49.53;;;38.97;;
58758;SDS011;46777;47.482;19.054;2022-12-17T06:00:56;47.17;;;37.60;;
58758;SDS011;46777;47.482;19.054;2022-12-17T06:03:59;48.33;;;39.30;;
58758;SDS011;46777;47.482;19.054;2022-12-17T06:07:03;49.03;;;38.90;;
58758;SDS011;46777;47.482;19.054;2022-12-17T06:10:06;46.75;;;38.92;;
58758;SDS011;46777;47.482;19.054;2022-12-17T06:13:09;47.78;;;39.25;;
58758;SDS011;46777;47.482;19.054;2022-12-17T06:16:12;48.42;;;40.55;;
58758;SDS011;46777;47.482;19.054;2022-12-17T06:19:15;53.10;;;47.55;;
58758;SDS011;46777;47.482;19.054;2022-12-17T06:22:18;47.05;;;38.45;;
58758;SDS011;46777;47.482;19.054;2022-12-17T06:25:21;49.45;;;38.60;;
58758;SDS011;46777;47.482;19.054;2022-12-17T06:28:25;48.45;;;39.58;;
58758;SDS011;46777;47.482;19.054;2022-12-17T06:31:28;48.67;;;37.92;;
58758;SDS011;46777;47.482;19.054;2022-12-17T06:34:31;48.67;;;38.42;;
58758;SDS011;46777;47.482;19.054;2022-12-17T06:37:34;50.47;;;38.90;;
58758;SDS011;46777;47.482;19.054;2022-12-17T06:40:37;45.67;;;37.13;;
58758;SDS011;46777;47.482;19.054;2022-12-17T06:43:40;45.15;;;36.95;;
58758;SDS011;46777;47.482;19.054;2022-12-17T06:46:43;45.05;;;36.67;;
58758;SDS011;46777;47.482;19.054;2022-12-17T06:49:47;48.20;;;39.35;;
58758;SDS011;46777;47.482;19.054;2022-12-17T06:53:00;48.47;;;39.95;;
58758;SDS011;46777;47.482;19.054;2022-12-17T06:56:03;48.20;;;37.97;;
58758;SDS011;46777;47.482;19.054;2022-12-17T06:59:06;49.70;;;39.17;;
58758;SDS011;46777;47.482;19.054;2022-12-17T07:02:09;46.67;;;37.67;;
58758;SDS011;46777;47.482;19.054;2022-12-17T07:05:12;46.28;;;38.38;;
58758;SDS011;46777;47.482;19.054;2022-12-17T07:08:16;48.15;;;39.10;;
58758;SDS011;46777;47.482;19.054;2022-12-17T07:11:19;50.30;;;41.40;;
58758;SDS011;46777;47.482;19.054;2022-12-17T07:14:22;51.28;;;40.97;;
58758;SDS011;46777;47.482;19.054;2022-12-17T07:17:25;49.17;;;39.72;;
58758;SDS011;46777;47.482;19.054;2022-12-17T07:20:28;47.10;;;39.50;;
58758;SDS011;46777;47.482;19.054;2022-12-17T07:23:31;50.63;;;41.40;;
58758;SDS011;46777;47.482;19.054;2022-12-17T07:26:34;51.00;;;40.45;;
58758;SDS011;46777;47.482;19.054;2022-12-17T07:29:37;52.72;;;41.78;;
58758;SDS011;46777;47.482;19.054;2022-12-17T07:32:40;50.97;;;41.78;;
58758;SDS011;46777;47.482;19.054;2022-12-17T07:35:44;52.78;;;42.05;;
58758;SDS011;46777;47.482;19.054;2022-12-17T07:38:47;49.50;;;39.90;;
58758;SDS011;46777;47.482;19.054;2022-12-17T07:41:50;52.00;;;41.42;;
58758;SDS011;46777;47.482;19.054;2022-12-17T07:44:53;51.40;;;41.60;;
58758;SDS011;46777;47.482;19.054;2022-12-17T07:47:56;54.85;;;49.22;;
58758;SDS011;46777;47.482;19.054;2022-12-17T07:50:59;52.33;;;42.28;;
58758;SDS011;46777;47.482;19.054;2022-12-17T07:54:02;51.22;;;40.78;;
58758;SDS011;46777;47.482;19.054;2022-12-17T07:57:06;48.53;;;38.55;;
58758;SDS011;46777;47.482;19.054;2022-12-17T08:00:09;48.20;;;37.88;;
58758;SDS011;46777;47.482;19.054;2022-12-17T08:03:12;50.15;;;39.20;;
58758;SDS011;46777;47.482;19.054;2022-12-17T08:06:15;45.63;;;38.33;;
58758;SDS011;46777;47.482;19.054;2022-12-17T08:09:18;47.88;;;39.15;;
58758;SDS011;46777;47.482;19.054;2022-12-17T08:12:21;49.83;;;40.08;;
58758;SDS011;46777;47.482;19.054;2022-12-17T08:15:24;51.88;;;39.50;;
58758;SDS011;46777;47.482;19.054;2022-12-17T08:18:27;49.13;;;39.80;;
58758;SDS011;46777;47.482;19.054;2022-12-17T08:21:30;49.13;;;38.60;;
58758;SDS011;46777;47.482;19.054;2022-12-17T08:24:34;51.00;;;39.75;;
58758;SDS011;46777;47.482;19.054;2022-12-17T08:27:37;52.72;;;40.60;;
58758;SDS011;46777;47.482;19.054;2022-12-17T08:30:40;50.28;;;40.58;;
58758;SDS011;46777;47.482;19.054;2022-12-17T08:33:43;52.83;;;41.58;;
58758;SDS011;46777;47.482;19.054;2022-12-17T08:36:46;55.38;;;42.50;;
58758;SDS011;46777;47.482;19.054;2022-12-17T08:39:49;53.92;;;42.30;;
58758;SDS011;46777;47.482;19.054;2022-12-17T08:42:56;54.70;;;41.63;;
58758;SDS011;46777;47.482;19.054;2022-12-17T08:45:59;51.35;;;41.42;;
58758;SDS011;46777;47.482;19.054;2022-12-17T08:49:02;54.55;;;42.25;;
58758;SDS011;46777;47.482;19.054;2022-12-17T08:52:05;56.72;;;42.72;;
58758;SDS011;46777;47.482;19.054;2022-12-17T08:55:09;56.05;;;43.78;;
58758;SDS011;46777;47.482;19.054;2022-12-17T08:58:12;55.92;;;43.63;;
58758;SDS011;46777;47.482;19.054;2022-12-17T09:01:15;54.88;;;42.38;;
58758;SDS011;46777;47.482;19.054;2022-12-17T09:04:18;50.90;;;42.78;;
58758;SDS011;46777;47.482;19.054;2022-12-17T09:07:21;58.45;;;44.92;;
58758;SDS011;46777;47.482;19.054;2022-12-17T09:10:25;56.70;;;45.42;;
58758;SDS011;46777;47.482;19.054;2022-12-17T09:13:28;53.58;;;43.45;;
58758;SDS011;46777;47.482;19.054;2022-12-17T09:16:31;59.13;;;47.67;;
58758;SDS011;46777;47.482;19.054;2022-12-17T09:19:34;56.72;;;43.17;;
58758;SDS011;46777;47.482;19.054;2022-12-17T09:22:37;58.85;;;43.90;;
58758;SDS011;46777;47.482;19.054;2022-12-17T09:25:40;58.80;;;44.40;;
58758;SDS011;46777;47.482;19.054;2022-12-17T09:28:43;57.20;;;43.58;;
58758;SDS011;46777;47.482;19.054;2022-12-17T09:31:47;58.33;;;43.78;;
58758;SDS011;46777;47.482;19.054;2022-12-17T09:34:54;60.78;;;44.30;;
58758;SDS011;46777;47.482;19.054;2022-12-17T09:37:57;56.60;;;44.28;;
58758;SDS011;46777;47.482;19.054;2022-12-17T09:41:04;59.05;;;44.95;;
58758;SDS011;46777;47.482;19.054;2022-12-17T09:44:19;54.80;;;43.60;;
58758;SDS011;46777;47.482;19.054;2022-12-17T09:50:38;57.95;;;43.80;;
58758;SDS011;46777;47.482;19.054;2022-12-17T09:53:43;57.00;;;46.92;;
58758;SDS011;46777;47.482;19.054;2022-12-17T09:56:46;57.42;;;48.10;;
58758;SDS011;46777;47.482;19.054;2022-12-17T09:59:50;56.97;;;44.67;;
58758;SDS011;46777;47.482;19.054;2022-12-17T10:03:08;54.95;;;43.63;;
58758;SDS011;46777;47.482;19.054;2022-12-17T10:06:17;53.95;;;42.78;;
58758;SDS011;46777;47.482;19.054;2022-12-17T10:09:20;54.88;;;43.92;;
58758;SDS011;46777;47.482;19.054;2022-12-17T10:12:23;54.65;;;40.95;;
58758;SDS011;46777;47.482;19.054;2022-12-17T10:15:27;54.85;;;44.33;;
58758;SDS011;46777;47.482;19.054;2022-12-17T10:18:30;55.40;;;42.67;;
58758;SDS011;46777;47.482;19.054;2022-12-17T10:21:33;55.17;;;43.33;;
58758;SDS011;46777;47.482;19.054;2022-12-17T10:24:43;55.40;;;43.50;;
58758;SDS011;46777;47.482;19.054;2022-12-17T10:27:46;56.13;;;43.45;;
58758;SDS011;46777;47.482;19.054;2022-12-17T10:30:49;55.20;;;42.53;;
58758;SDS011;46777;47.482;19.054;2022-12-17T10:33:55;53.08;;;42.08;;
58758;SDS011;46777;47.482;19.054;2022-12-17T10:36:58;53.22;;;40.90;;
58758;SDS011;46777;47.482;19.054;2022-12-17T10:40:02;55.20;;;46.72;;
58758;SDS011;46777;47.482;19.054;2022-12-17T10:46:29;54.70;;;41.17;;
58758;SDS011;46777;47.482;19.054;2022-12-17T10:49:32;52.75;;;40.50;;
58758;SDS011;46777;47.482;19.054;2022-12-17T10:52:35;53.78;;;41.78;;
58758;SDS011;46777;47.482;19.054;2022-12-17T10:55:45;50.20;;;40.38;;
58758;SDS011;46777;47.482;19.054;2022-12-17T10:58:50;49.60;;;42.75;;
58758;SDS011;46777;47.482;19.054;2022-12-17T11:01:55;47.92;;;42.58;;
58758;SDS011;46777;47.482;19.054;2022-12-17T11:05:01;49.05;;;42.53;;
58758;SDS011;46777;47.482;19.054;2022-12-17T11:08:04;50.42;;;42.75;;
58758;SDS011;46777;47.482;19.054;2022-12-17T11:11:09;49.33;;;41.97;;
58758;SDS011;46777;47.482;19.054;2022-12-17T11:14:12;48.17;;;42.40;;
58758;SDS011;46777;47.482;19.054;2022-12-17T11:17:16;45.80;;;40.80;;
58758;SDS011;46777;47.482;19.054;2022-12-17T11:20:22;47.40;;;41.85;;
58758;SDS011;46777;47.482;19.054;2022-12-17T11:23:26;46.22;;;41.13;;
58758;SDS011;46777;47.482;19.054;2022-12-17T11:26:30;46.75;;;41.47;;
58758;SDS011;46777;47.482;19.054;2022-12-17T11:29:34;46.88;;;40.75;;
58758;SDS011;46777;47.482;19.054;2022-12-17T11:32:43;48.22;;;41.92;;
58758;SDS011;46777;47.482;19.054;2022-12-17T11:36:01;48.50;;;41.53;;
58758;SDS011;46777;47.482;19.054;2022-12-17T11:39:29;52.42;;;43.38;;
58758;SDS011;46777;47.482;19.054;2022-12-17T11:42:42;47.88;;;42.17;;
58758;SDS011;46777;47.482;19.054;2022-12-17T11:49:13;52.40;;;43.08;;
58758;SDS011;46777;47.482;19.054;2022-12-17T11:55:25;50.20;;;43.08;;
58758;SDS011;46777;47.482;19.054;2022-12-17T11:58:36;51.88;;;44.00;;
58758;SDS011;46777;47.482;19.054;2022-12-17T12:01:44;50.60;;;42.47;;
58758;SDS011;46777;47.482;19.054;2022-12-17T12:14:43;46.65;;;40.30;;
58758;SDS011;46777;47.482;19.054;2022-12-17T12:17:53;46.83;;;41.17;;
58758;SDS011;46777;47.482;19.054;2022-12-17T12:27:16;49.00;;;41.63;;
58758;SDS011;46777;47.482;19.054;2022-12-17T12:30:23;51.92;;;42.75;;
58758;SDS011;46777;47.482;19.054;2022-12-17T12:33:29;51.60;;;42.13;;
58758;SDS011;46777;47.482;19.054;2022-12-17T12:36:35;52.45;;;42.90;;
58758;SDS011;46777;47.482;19.054;2022-12-17T12:39:48;51.42;;;42.47;;
58758;SDS011;46777;47.482;19.054;2022-12-17T12:42:55;56.15;;;44.50;;
58758;SDS011;46777;47.482;19.054;2022-12-17T12:52:39;56.03;;;45.63;;
58758;SDS011;46777;47.482;19.054;2022-12-17T12:55:42;56.83;;;44.78;;
58758;SDS011;46777;47.482;19.054;2022-12-17T12:58:46;56.65;;;44.33;;
58758;SDS011;46777;47.482;19.054;2022-12-17T13:01:50;55.45;;;43.60;;
58758;SDS011;46777;47.482;19.054;2022-12-17T13:04:53;57.20;;;44.08;;
58758;SDS011;46777;47.482;19.054;2022-12-17T13:10:50;54.67;;;44.28;;
58758;SDS011;46777;47.482;19.054;2022-12-17T13:13:36;57.42;;;45.70;;
58758;SDS011;46777;47.482;19.054;2022-12-17T13:25:36;54.60;;;42.55;;
58758;SDS011;46777;47.482;19.054;2022-12-17T13:28:27;55.17;;;44.70;;
58758;SDS011;46777;47.482;19.054;2022-12-17T13:31:14;47.42;;;41.33;;
58758;SDS011;46777;47.482;19.054;2022-12-17T13:40:10;46.22;;;41.28;;
58758;SDS011;46777;47.482;19.054;2022-12-17T13:42:57;45.00;;;39.90;;
58758;SDS011;46777;47.482;19.054;2022-12-17T13:45:41;46.58;;;41.58;;
58758;SDS011;46777;47.482;19.054;2022-12-17T13:48:27;45.20;;;40.17;;
58758;SDS011;46777;47.482;19.054;2022-12-17T13:51:19;46.05;;;40.33;;
58758;SDS011;46777;47.482;19.054;2022-12-17T13:54:03;44.30;;;39.47;;
58758;SDS011;46777;47.482;19.054;2022-12-17T13:56:48;48.53;;;41.22;;
58758;SDS011;46777;47.482;19.054;2022-12-17T13:59:32;47.30;;;40.78;;
58758;SDS011;46777;47.482;19.054;2022-12-17T14:02:26;50.03;;;41.92;;
58758;SDS011;46777;47.482;19.054;2022-12-17T14:05:20;48.67;;;41.35;;
58758;SDS011;46777;47.482;19.054;2022-12-17T14:08:06;51.15;;;42.40;;
58758;SDS011;46777;47.482;19.054;2022-12-17T14:10:51;51.22;;;42.33;;
58758;SDS011;46777;47.482;19.054;2022-12-17T14:13:56;51.03;;;42.55;;
58758;SDS011;46777;47.482;19.054;2022-12-17T14:16:40;49.58;;;42.22;;
58758;SDS011;46777;47.482;19.054;2022-12-17T14:19:26;50.00;;;41.58;;
58758;SDS011;46777;47.482;19.054;2022-12-17T14:22:12;49.60;;;40.95;;
58758;SDS011;46777;47.482;19.054;2022-12-17T14:24:59;52.10;;;42.03;;
58758;SDS011;46777;47.482;19.054;2022-12-17T14:30:41;50.10;;;41.47;;
58758;SDS011;46777;47.482;19.054;2022-12-17T14:33:27;53.65;;;42.97;;
58758;SDS011;46777;47.482;19.054;2022-12-17T14:38:58;52.47;;;41.13;;
58758;SDS011;46777;47.482;19.054;2022-12-17T14:41:42;52.72;;;43.05;;
58758;SDS011;46777;47.482;19.054;2022-12-17T14:44:49;51.15;;;42.20;;
58758;SDS011;46777;47.482;19.054;2022-12-17T14:47:35;50.35;;;41.55;;
58758;SDS011;46777;47.482;19.054;2022-12-17T14:53:24;52.13;;;41.65;;
58758;SDS011;46777;47.482;19.054;2022-12-17T14:56:16;48.67;;;40.20;;
58758;SDS011;46777;47.482;19.054;2022-12-17T14:59:04;47.88;;;39.50;;
58758;SDS011;46777;47.482;19.054;2022-12-17T15:01:49;51.13;;;41.05;;
58758;SDS011;46777;47.482;19.054;2022-12-17T15:04:34;50.20;;;39.72;;
58758;SDS011;46777;47.482;19.054;2022-12-17T15:07:21;51.08;;;39.75;;
58758;SDS011;46777;47.482;19.054;2022-12-17T15:10:10;48.95;;;39.80;;
58758;SDS011;46777;47.482;19.054;2022-12-17T15:12:55;49.65;;;39.05;;
58758;SDS011;46777;47.482;19.054;2022-12-17T15:15:39;47.42;;;38.17;;
58758;SDS011;46777;47.482;19.054;2022-12-17T15:18:24;49.17;;;38.95;;
58758;SDS011;46777;47.482;19.054;2022-12-17T15:21:08;47.33;;;37.85;;
58758;SDS011;46777;47.482;19.054;2022-12-17T15:23:54;46.65;;;37.28;;
58758;SDS011;46777;47.482;19.054;2022-12-17T15:26:38;48.42;;;36.20;;
58758;SDS011;46777;47.482;19.054;2022-12-17T15:29:22;46.20;;;36.67;;
58758;SDS011;46777;47.482;19.054;2022-12-17T15:32:11;49.70;;;39.03;;
58758;SDS011;46777;47.482;19.054;2022-12-17T15:35:00;47.95;;;36.50;;
58758;SDS011;46777;47.482;19.054;2022-12-17T15:37:44;44.60;;;35.05;;
58758;SDS011;46777;47.482;19.054;2022-12-17T15:40:28;47.65;;;37.60;;
58758;SDS011;46777;47.482;19.054;2022-12-17T15:43:13;51.42;;;39.53;;
58758;SDS011;46777;47.482;19.054;2022-12-17T15:45:59;48.75;;;36.85;;
58758;SDS011;46777;47.482;19.054;2022-12-17T15:48:44;48.03;;;35.45;;
58758;SDS011;46777;47.482;19.054;2022-12-17T15:51:28;47.83;;;39.17;;
58758;SDS011;46777;47.482;19.054;2022-12-17T15:54:12;43.20;;;35.97;;
58758;SDS011;46777;47.482;19.054;2022-12-17T15:56:56;45.33;;;35.25;;
58758;SDS011;46777;47.482;19.054;2022-12-17T15:59:41;43.47;;;34.35;;
58758;SDS011;46777;47.482;19.054;2022-12-17T16:02:25;43.20;;;33.22;;
58758;SDS011;46777;47.482;19.054;2022-12-17T16:05:10;42.30;;;33.97;;
58758;SDS011;46777;47.482;19.054;2022-12-17T16:07:54;44.83;;;34.08;;
58758;SDS011;46777;47.482;19.054;2022-12-17T16:10:42;43.25;;;33.65;;
58758;SDS011;46777;47.482;19.054;2022-12-17T16:13:26;44.72;;;34.75;;
58758;SDS011;46777;47.482;19.054;2022-12-17T16:16:10;42.20;;;32.88;;
58758;SDS011;46777;47.482;19.054;2022-12-17T16:18:55;42.35;;;33.22;;
58758;SDS011;46777;47.482;19.054;2022-12-17T16:21:39;44.42;;;34.80;;
58758;SDS011;46777;47.482;19.054;2022-12-17T16:24:23;41.97;;;32.58;;
58758;SDS011;46777;47.482;19.054;2022-12-17T16:27:07;42.08;;;31.92;;
58758;SDS011;46777;47.482;19.054;2022-12-17T16:29:52;42.53;;;33.67;;
58758;SDS011;46777;47.482;19.054;2022-12-17T16:32:36;39.72;;;32.33;;
58758;SDS011;46777;47.482;19.054;2022-12-17T16:35:21;41.00;;;31.88;;
58758;SDS011;46777;47.482;19.054;2022-12-17T16:38:07;40.50;;;31.38;;
58758;SDS011;46777;47.482;19.054;2022-12-17T16:40:54;41.50;;;32.15;;
58758;SDS011;46777;47.482;19.054;2022-12-17T16:43:39;42.85;;;34.20;;
58758;SDS011;46777;47.482;19.054;2022-12-17T16:46:25;40.55;;;32.70;;
58758;SDS011;46777;47.482;19.054;2022-12-17T16:49:11;40.25;;;31.10;;
58758;SDS011;46777;47.482;19.054;2022-12-17T16:51:55;40.28;;;32.53;;
58758;SDS011;46777;47.482;19.054;2022-12-17T16:54:39;39.75;;;31.55;;
58758;SDS011;46777;47.482;19.054;2022-12-17T16:57:24;39.17;;;29.42;;
58758;SDS011;46777;47.482;19.054;2022-12-17T17:00:09;39.78;;;29.98;;
58758;SDS011;46777;47.482;19.054;2022-12-17T17:02:53;41.78;;;31.02;;
58758;SDS011;46777;47.482;19.054;2022-12-17T17:05:38;41.03;;;31.38;;
58758;SDS011;46777;47.482;19.054;2022-12-17T17:08:22;39.70;;;30.35;;
58758;SDS011;46777;47.482;19.054;2022-12-17T17:11:07;40.15;;;31.73;;
58758;SDS011;46777;47.482;19.054;2022-12-17T17:13:52;41.95;;;34.50;;
58758;SDS011;46777;47.482;19.054;2022-12-17T17:16:37;42.42;;;30.40;;
58758;SDS011;46777;47.482;19.054;2022-12-17T17:19:21;38.17;;;31.33;;
58758;SDS011;46777;47.482;19.054;2022-12-17T17:22:05;38.95;;;31.30;;
58758;SDS011;46777;47.482;19.054;2022-12-17T17:24:49;40.03;;;31.25;;
58758;SDS011;46777;47.482;19.054;2022-12-17T17:27:34;41.90;;;31.25;;
58758;SDS011;46777;47.482;19.054;2022-12-17T17:30:18;40.92;;;32.20;;
58758;SDS011;46777;47.482;19.054;2022-12-17T17:33:02;37.88;;;30.13;;
58758;SDS011;46777;47.482;19.054;2022-12-17T17:35:46;40.20;;;30.67;;
58758;SDS011;46777;47.482;19.054;2022-12-17T17:38:31;37.00;;;29.17;;
58758;SDS011;46777;47.482;19.054;2022-12-17T17:41:17;41.67;;;31.00;;
58758;SDS011;46777;47.482;19.054;2022-12-17T17:46:46;39.63;;;30.40;;
58758;SDS011;46777;47.482;19.054;2022-12-17T17:49:30;43.75;;;36.35;;
58758;SDS011;46777;47.482;19.054;2022-12-17T17:52:15;37.72;;;29.58;;
58758;SDS011;46777;47.482;19.054;2022-12-17T17:55:00;38.70;;;29.95;;
58758;SDS011;46777;47.482;19.054;2022-12-17T17:57:44;41.55;;;31.35;;
58758;SDS011;46777;47.482;19.054;2022-12-17T18:00:28;39.78;;;30.35;;
58758;SDS011;46777;47.482;19.054;2022-12-17T18:03:12;38.10;;;28.75;;
58758;SDS011;46777;47.482;19.054;2022-12-17T18:06:00;39.03;;;29.10;;
58758;SDS011;46777;47.482;19.054;2022-12-17T18:08:44;38.60;;;28.55;;
58758;SDS011;46777;47.482;19.054;2022-12-17T18:11:29;36.85;;;27.50;;
58758;SDS011;46777;47.482;19.054;2022-12-17T18:14:14;39.47;;;28.80;;
58758;SDS011;46777;47.482;19.054;2022-12-17T18:16:58;37.25;;;29.70;;
58758;SDS011;46777;47.482;19.054;2022-12-17T18:19:42;39.05;;;30.25;;